Time;durP1;ratioP1;P1;durP2;ratioP2;P2;SDS_P1;SDS_P2;PMS_P1;PMS_P2;Temp;Humidity;BMP_temperature;BMP_pressure;BME280_temperature;BME280_humidity;BME280_pressure;Samples;Min_cycle;Max_cycle;Signal;HPM_P1;HPM_P2
2021/11/10 00:01:44;;;;;;;12.38;7.90;;;;;;;17.44;26.74;99694.53;5063266;28;20064;-82
2021/11/10 00:04:10;;;;;;;15.18;9.43;;;;;;;17.55;27.13;99695.72;5068087;28;20097;-82
2021/11/10 00:06:36;;;;;;;16.25;9.65;;;;;;;17.99;26.15;99697.44;5067328;28;20044;-82
2021/11/10 00:09:04;;;;;;;17.92;9.85;;;;;;;18.76;25.46;99695.16;5064629;28;20029;-82
2021/11/10 00:11:30;;;;;;;16.58;8.82;;;;;;;19.69;24.02;99696.97;5065020;28;20500;-82
2021/11/10 00:13:56;;;;;;;16.50;9.57;;;;;;;19.72;23.83;99688.66;5061410;28;20112;-82
2021/11/10 00:16:23;;;;;;;16.15;9.35;;;;;;;19.79;23.61;99696.41;5062748;28;20031;-82
2021/11/10 00:18:51;;;;;;;14.32;8.73;;;;;;;20.43;22.59;99695.69;5066375;28;20035;-82
2021/11/10 00:21:18;;;;;;;20.27;9.77;;;;;;;20.60;22.39;99693.25;5068076;28;20129;-83
2021/11/10 00:23:45;;;;;;;18.75;9.43;;;;;;;20.75;22.32;99694.25;5061316;28;20032;-82
2021/11/10 00:26:11;;;;;;;18.00;10.77;;;;;;;19.99;23.05;99689.63;5061729;28;20409;-82
2021/11/10 00:28:37;;;;;;;16.02;8.57;;;;;;;20.19;22.89;99695.97;5057879;28;20040;-81
2021/11/10 00:31:03;;;;;;;19.17;10.27;;;;;;;20.50;22.71;99695.81;5069334;28;20032;-81
2021/11/10 00:33:29;;;;;;;18.38;10.52;;;;;;;20.88;22.10;99678.94;5069850;28;20032;-81
2021/11/10 00:35:55;;;;;;;14.52;7.07;;;;;;;21.38;21.47;99690.94;5049645;28;20036;-82
2021/11/10 00:38:21;;;;;;;15.70;8.27;;;;;;;21.83;20.72;99690.75;5071906;28;20040;-82
2021/11/10 00:40:47;;;;;;;14.30;6.75;;;;;;;22.09;20.26;99693.50;5069648;28;20039;-81
2021/11/10 00:43:14;;;;;;;12.40;7.78;;;;;;;22.29;19.74;99694.09;5064969;28;20079;-81
2021/11/10 00:45:40;;;;;;;12.88;6.57;;;;;;;22.40;20.05;99697.84;5064384;28;20060;-81
2021/11/10 00:48:07;;;;;;;13.13;7.20;;;;;;;22.56;19.71;99704.00;5071423;28;20454;-81
2021/11/10 00:50:34;;;;;;;11.85;6.45;;;;;;;22.72;19.43;99696.19;5069678;28;20040;-82
2021/11/10 00:53:00;;;;;;;13.48;7.10;;;;;;;22.79;19.50;99692.63;5070474;28;20020;-81
2021/11/10 00:55:26;;;;;;;16.90;8.68;;;;;;;22.60;19.21;99690.84;5065447;28;20056;-81
2021/11/10 00:57:52;;;;;;;11.40;6.68;;;;;;;22.41;19.32;99686.25;5062807;28;20145;-81
2021/11/10 01:00:18;;;;;;;13.35;7.90;;;;;;;22.50;19.04;99677.53;5058521;28;20037;-82
2021/11/10 01:02:45;;;;;;;13.82;7.32;;;;;;;22.37;19.20;99674.22;5061836;28;20039;-83
2021/11/10 01:05:12;;;;;;;12.27;6.93;;;;;;;22.39;18.93;99679.44;5060056;28;20032;-82
2021/11/10 01:07:38;;;;;;;12.75;6.20;;;;;;;22.40;19.12;99681.84;5059817;28;20028;-83
2021/11/10 01:10:06;;;;;;;12.70;6.35;;;;;;;22.11;19.44;99673.53;5048964;28;20089;-83
2021/11/10 01:12:32;;;;;;;14.60;6.45;;;;;;;22.08;19.68;99672.28;5048101;28;20028;-82
2021/11/10 01:14:59;;;;;;;10.43;6.13;;;;;;;22.24;19.43;99672.88;5062956;28;20033;-83
2021/11/10 01:17:25;;;;;;;12.82;8.32;;;;;;;21.63;19.98;99661.34;5064927;28;20040;-83
2021/11/10 01:19:51;;;;;;;9.85;6.70;;;;;;;21.26;20.28;99673.19;5064062;28;20036;-83
2021/11/10 01:22:18;;;;;;;13.52;7.32;;;;;;;21.34;20.40;99660.94;5062903;28;20083;-82
2021/11/10 01:24:44;;;;;;;9.65;6.15;;;;;;;21.73;19.71;99669.03;5044679;28;20112;-82
2021/11/10 01:27:10;;;;;;;12.93;7.68;;;;;;;21.83;20.15;99662.78;5064399;28;20069;-82
2021/11/10 01:29:37;;;;;;;12.43;7.35;;;;;;;21.43;19.98;99654.25;5060250;28;20029;-82
2021/11/10 01:32:04;;;;;;;12.52;6.97;;;;;;;21.30;19.96;99648.09;5064561;28;20127;-82
2021/11/10 01:34:30;;;;;;;12.43;7.05;;;;;;;21.50;19.78;99646.78;5059468;28;20032;-82
2021/11/10 01:36:57;;;;;;;15.15;7.45;;;;;;;21.53;20.04;99648.81;5055676;28;20036;-82
2021/11/10 01:39:23;;;;;;;10.93;7.13;;;;;;;21.54;20.40;99639.25;5060479;28;20029;-82
2021/11/10 01:41:52;;;;;;;11.15;5.68;;;;;;;21.40;20.53;99641.84;5059563;28;20894;-82
2021/11/10 01:44:27;;;;;;;10.68;5.72;;;;;;;21.69;19.95;99641.03;5065120;28;20064;-82
2021/11/10 01:46:55;;;;;;;13.15;7.05;;;;;;;21.59;20.56;99644.50;5069676;28;20052;-83
2021/11/10 01:49:21;;;;;;;10.55;5.90;;;;;;;21.33;20.35;99645.34;5056306;28;20044;-82
2021/11/10 01:51:50;;;;;;;9.45;5.25;;;;;;;21.59;20.64;99647.28;5070086;28;20024;-82
2021/11/10 01:54:19;;;;;;;12.23;6.47;;;;;;;21.48;21.32;99653.94;5051130;28;20029;-82
2021/11/10 01:56:45;;;;;;;11.23;5.25;;;;;;;21.59;20.58;99663.25;5067503;28;20104;-81
2021/11/10 01:59:27;;;;;;;9.27;5.60;;;;;;;21.83;20.17;99657.19;5060678;28;20486;-81
2021/11/10 02:01:53;;;;;;;8.98;5.30;;;;;;;22.13;19.65;99659.94;5068360;28;20129;-81
2021/11/10 02:04:19;;;;;;;8.80;4.80;;;;;;;22.34;18.99;99660.19;5067359;28;20048;-82
2021/11/10 02:06:45;;;;;;;12.88;5.47;;;;;;;22.46;18.68;99651.50;5061722;28;20033;-82
2021/11/10 02:09:11;;;;;;;12.57;6.22;;;;;;;22.26;18.73;99642.53;5066273;28;20028;-82
2021/11/10 02:11:39;;;;;;;10.60;6.30;;;;;;;21.44;19.35;99642.72;5062993;28;20549;-82
2021/11/10 02:14:06;;;;;;;11.68;7.65;;;;;;;21.11;19.49;99620.28;5065353;28;20032;-82
2021/11/10 02:16:36;;;;;;;10.88;6.63;;;;;;;20.72;20.00;99632.81;5064714;28;20120;-81
2021/11/10 02:19:05;;;;;;;11.25;6.57;;;;;;;20.93;19.96;99628.38;5070034;28;20366;-81
2021/11/10 02:21:32;;;;;;;16.75;7.53;;;;;;;19.88;21.21;99630.09;5065600;28;20056;-82
2021/11/10 02:23:59;;;;;;;13.63;7.13;;;;;;;19.82;21.85;99640.72;5069064;28;20029;-82
2021/11/10 02:26:25;;;;;;;10.90;6.15;;;;;;;20.29;21.68;99631.28;5066144;28;20025;-82
2021/11/10 02:28:51;;;;;;;15.07;8.32;;;;;;;20.84;20.43;99633.41;5067794;28;20031;-82
2021/11/10 02:31:18;;;;;;;14.93;5.85;;;;;;;21.17;20.24;99633.53;5068502;28;20044;-82
2021/11/10 02:33:44;;;;;;;11.02;5.85;;;;;;;21.52;19.62;99627.63;5066595;28;20036;-82
2021/11/10 02:36:11;;;;;;;12.07;5.00;;;;;;;21.90;19.13;99637.72;5065963;28;20037;-82
2021/11/10 02:38:37;;;;;;;10.43;6.15;;;;;;;22.00;19.05;99634.25;5059452;28;20063;-82
2021/11/10 02:41:04;;;;;;;11.68;6.50;;;;;;;21.73;19.19;99632.69;5066177;28;20509;-82
2021/11/10 02:43:30;;;;;;;10.80;5.53;;;;;;;21.55;19.03;99634.47;5068910;28;20038;-82
2021/11/10 02:45:57;;;;;;;10.73;6.20;;;;;;;21.67;19.14;99625.84;5068398;28;20028;-82
2021/11/10 02:48:24;;;;;;;12.55;6.07;;;;;;;21.67;18.73;99623.84;5065460;28;20093;-82
2021/11/10 02:50:50;;;;;;;13.15;7.15;;;;;;;21.44;18.87;99628.75;5071055;28;20071;-82
2021/11/10 02:53:17;;;;;;;10.40;6.13;;;;;;;21.47;18.58;99636.34;5067725;28;20036;-82
2021/11/10 02:55:43;;;;;;;11.48;5.70;;;;;;;21.56;18.67;99630.50;5047639;28;20049;-81
2021/11/10 02:58:09;;;;;;;14.60;7.65;;;;;;;21.34;19.17;99630.22;5067701;28;20042;-81
2021/11/10 03:00:36;;;;;;;11.77;5.85;;;;;;;21.31;19.28;99618.97;5062942;28;20078;-81
2021/11/10 03:03:02;;;;;;;14.30;7.22;;;;;;;20.97;19.24;99615.28;5063143;28;20111;-81
2021/11/10 03:05:29;;;;;;;11.95;6.80;;;;;;;20.33;20.12;99616.22;5062295;28;20409;-81
2021/11/10 03:07:55;;;;;;;10.82;6.15;;;;;;;20.53;20.09;99609.41;5062936;28;20028;-81
2021/11/10 03:10:22;;;;;;;12.85;7.97;;;;;;;20.79;19.80;99603.03;5067536;28;20036;-81
2021/11/10 03:12:48;;;;;;;12.57;6.65;;;;;;;20.73;20.13;99600.91;5068515;28;20024;-81
2021/11/10 03:15:14;;;;;;;11.35;5.35;;;;;;;20.95;19.52;99589.72;5062316;28;20033;-81
2021/11/10 03:17:41;;;;;;;9.45;5.30;;;;;;;21.15;19.83;99604.38;5067336;28;20471;-82
2021/11/10 03:20:08;;;;;;;8.98;5.00;;;;;;;21.12;19.54;99605.16;5062156;28;20037;-81
2021/11/10 03:22:34;;;;;;;7.22;4.15;;;;;;;21.20;20.00;99599.28;5060937;28;20123;-81
2021/11/10 03:25:02;;;;;;;8.52;3.90;;;;;;;21.43;20.14;99596.38;5057317;28;20044;-81
2021/11/10 03:27:28;;;;;;;8.68;4.53;;;;;;;21.47;20.22;99599.25;5065253;28;20120;-81
2021/11/10 03:29:54;;;;;;;8.00;4.68;;;;;;;21.64;19.49;99598.63;5069499;28;20043;-81
2021/11/10 03:32:22;;;;;;;8.13;4.60;;;;;;;21.81;19.28;99595.25;5051972;28;20032;-81
2021/11/10 03:34:50;;;;;;;10.48;4.97;;;;;;;21.92;19.07;99590.59;5061953;28;20033;-81
2021/11/10 03:37:16;;;;;;;10.23;4.40;;;;;;;21.60;19.81;99601.41;5054133;28;20107;-81
2021/11/10 03:39:43;;;;;;;8.57;4.47;;;;;;;21.34;20.00;99602.28;5065269;28;20539;-82
2021/11/10 03:42:09;;;;;;;8.10;4.50;;;;;;;21.22;20.42;99591.31;5065304;28;20021;-82
2021/11/10 03:44:36;;;;;;;9.50;5.70;;;;;;;21.13;20.84;99590.81;5069667;28;20097;-83
2021/11/10 03:47:02;;;;;;;8.90;4.72;;;;;;;21.54;19.95;99588.94;5070829;28;20021;-81
2021/11/10 03:49:28;;;;;;;8.18;5.07;;;;;;;21.82;19.25;99585.69;5071454;28;20190;-81
2021/11/10 03:51:54;;;;;;;6.85;4.03;;;;;;;22.06;18.63;99579.56;5074442;28;20154;-81
2021/11/10 03:54:20;;;;;;;7.70;4.10;;;;;;;22.08;18.45;99574.38;5074251;28;20496;-82
2021/11/10 03:56:47;;;;;;;8.60;4.80;;;;;;;22.16;18.33;99570.47;5070560;28;20478;-81
2021/11/10 03:59:14;;;;;;;7.72;4.70;;;;;;;22.11;18.13;99572.81;5065746;28;20385;-81
2021/11/10 04:01:40;;;;;;;8.60;4.88;;;;;;;22.00;18.55;99573.53;5073260;28;20029;-82
2021/11/10 04:04:07;;;;;;;9.63;5.53;;;;;;;21.71;18.52;99573.56;5067285;28;20052;-82
2021/11/10 04:06:35;;;;;;;8.73;4.80;;;;;;;21.15;19.34;99582.84;5062878;28;20043;-83
2021/11/10 04:09:02;;;;;;;9.10;4.82;;;;;;;20.87;19.57;99579.63;5053485;28;20455;-81
2021/11/10 04:11:28;;;;;;;7.70;3.72;;;;;;;21.03;19.22;99577.47;5069982;28;20032;-82
2021/11/10 04:13:54;;;;;;;6.88;4.25;;;;;;;21.32;18.97;99570.31;5070970;28;20512;-82
2021/11/10 04:16:22;;;;;;;8.52;4.68;;;;;;;20.95;19.18;99572.16;5070338;28;20139;-81
2021/11/10 04:18:53;;;;;;;8.07;4.88;;;;;;;20.56;19.89;99574.38;5060325;28;20032;-80
2021/11/10 04:21:20;;;;;;;6.65;3.72;;;;;;;20.76;20.54;99563.91;5067018;28;20120;-80
2021/11/10 04:23:50;;;;;;;7.70;4.00;;;;;;;20.68;20.87;99549.81;5063101;28;20432;-80
2021/11/10 04:26:17;;;;;;;6.05;3.58;;;;;;;20.56;20.76;99547.25;5071092;28;20478;-80
2021/11/10 04:28:43;;;;;;;7.25;3.65;;;;;;;20.60;21.26;99552.91;5070765;28;20040;-80
2021/11/10 04:31:10;;;;;;;6.53;3.58;;;;;;;20.01;22.36;99539.53;5065846;28;20028;-80
2021/11/10 04:33:36;;;;;;;5.82;3.20;;;;;;;20.53;22.08;99547.19;5069443;28;20036;-82
2021/11/10 04:36:03;;;;;;;5.13;2.85;;;;;;;20.92;21.54;99539.41;5072042;28;20055;-80
2021/11/10 04:38:29;;;;;;;5.63;2.63;;;;;;;20.59;22.00;99529.75;5070671;28;20037;-81
2021/11/10 04:40:55;;;;;;;3.95;2.28;;;;;;;20.72;22.47;99524.78;5063116;28;20037;-81
2021/11/10 04:43:21;;;;;;;5.03;2.95;;;;;;;21.15;21.39;99524.19;5064673;28;20398;-80
2021/11/10 04:45:51;;;;;;;5.43;3.05;;;;;;;21.33;21.55;99524.44;5070551;28;20063;-80
2021/11/10 04:48:18;;;;;;;4.40;2.70;;;;;;;21.53;21.26;99509.09;5064284;28;20080;-81
2021/11/10 04:50:46;;;;;;;4.53;3.03;;;;;;;21.80;21.10;99523.72;5071459;28;20089;-81
2021/11/10 04:53:13;;;;;;;4.20;2.22;;;;;;;21.98;20.80;99524.75;5066365;28;20032;-82
2021/11/10 04:55:41;;;;;;;2.90;2.08;;;;;;;22.23;20.70;99533.38;5069775;28;20145;-82
2021/11/10 04:58:07;;;;;;;3.47;2.70;;;;;;;21.86;20.93;99536.22;5071216;28;20035;-81
2021/11/10 05:00:33;;;;;;;6.45;3.15;;;;;;;21.49;21.58;99532.59;5065902;28;20107;-81
2021/11/10 05:02:59;;;;;;;5.15;2.72;;;;;;;20.22;22.49;99528.75;5050635;28;20173;-81
2021/11/10 05:05:25;;;;;;;4.85;2.25;;;;;;;19.26;23.67;99520.56;5070645;28;20029;-81
2021/11/10 05:07:51;;;;;;;2.83;2.40;;;;;;;19.47;24.21;99530.53;5069216;28;20109;-81
2021/11/10 05:10:18;;;;;;;3.50;2.20;;;;;;;20.48;23.04;99528.81;5069037;28;20037;-81
2021/11/10 05:12:44;;;;;;;3.90;2.45;;;;;;;20.77;21.84;99535.59;5069159;28;20033;-81
2021/11/10 05:15:11;;;;;;;4.10;2.50;;;;;;;20.07;22.48;99531.66;5069310;28;20029;-81
2021/11/10 05:17:38;;;;;;;4.35;2.70;;;;;;;19.86;22.94;99529.31;5065902;28;20037;-81
2021/11/10 05:20:05;;;;;;;4.78;2.72;;;;;;;19.78;23.27;99538.69;5067782;28;20031;-81
2021/11/10 05:22:31;;;;;;;5.05;2.33;;;;;;;20.34;22.92;99530.56;5051814;28;20048;-82
2021/11/10 05:24:57;;;;;;;2.45;2.00;;;;;;;20.52;22.42;99532.44;5070303;28;20031;-82
2021/11/10 05:27:23;;;;;;;4.60;2.28;;;;;;;20.87;22.50;99540.53;5071122;28;20040;-82
2021/11/10 05:29:49;;;;;;;3.72;2.50;;;;;;;20.36;22.90;99528.19;5070037;28;20070;-81
2021/11/10 05:32:15;;;;;;;3.47;1.92;;;;;;;20.47;22.70;99529.97;5069681;28;20044;-82
2021/11/10 05:34:42;;;;;;;3.30;2.13;;;;;;;21.02;22.22;99528.41;5063173;28;20099;-81
2021/11/10 05:37:08;;;;;;;2.85;1.85;;;;;;;21.43;21.61;99526.53;5067928;28;20028;-82
2021/11/10 05:39:35;;;;;;;3.92;1.60;;;;;;;21.76;20.96;99523.72;5063831;28;20039;-82
2021/11/10 05:42:01;;;;;;;3.83;2.42;;;;;;;20.24;22.99;99526.41;5065638;28;20119;-82
2021/11/10 05:44:27;;;;;;;3.25;2.10;;;;;;;19.93;23.46;99523.84;5069797;28;20074;-81
2021/11/10 05:46:53;;;;;;;3.58;2.33;;;;;;;20.52;22.64;99523.25;5066519;28;20041;-81
2021/11/10 05:49:19;;;;;;;3.25;1.85;;;;;;;21.15;21.58;99526.19;5066291;28;20494;-82
2021/11/10 05:51:45;;;;;;;4.35;2.80;;;;;;;21.63;20.53;99533.56;5070539;28;20506;-83
2021/11/10 05:54:11;;;;;;;8.27;5.00;;;;;;;21.37;19.57;99539.25;5071442;28;20053;-82
2021/11/10 05:56:39;;;;;;;15.27;9.13;;;;;;;20.87;19.96;99534.13;5069165;28;20494;-83
2021/11/10 05:59:06;;;;;;;22.70;11.25;;;;;;;20.08;20.89;99536.03;5066584;28;20034;-82
2021/11/10 06:01:35;;;;;;;18.20;10.35;;;;;;;19.70;21.33;99539.72;5054849;28;20074;-83
2021/11/10 06:04:01;;;;;;;18.65;9.35;;;;;;;19.39;21.62;99546.31;5072245;28;20141;-82
2021/11/10 06:06:28;;;;;;;15.40;7.47;;;;;;;20.02;21.05;99548.69;5070634;28;20100;-83
2021/11/10 06:08:54;;;;;;;14.73;8.98;;;;;;;20.46;20.45;99549.88;5072084;28;20119;-82
2021/11/10 06:11:21;;;;;;;16.38;9.25;;;;;;;20.78;20.16;99533.63;5071808;28;20036;-82
2021/11/10 06:13:47;;;;;;;20.33;10.52;;;;;;;21.30;19.56;99551.13;5073349;28;20108;-82
2021/11/10 06:16:13;;;;;;;16.10;8.90;;;;;;;21.65;18.98;99552.75;5073247;28;20032;-82
2021/11/10 06:18:39;;;;;;;18.02;7.88;;;;;;;21.97;18.59;99548.31;5072002;28;20056;-82
2021/11/10 06:21:05;;;;;;;16.30;7.75;;;;;;;22.21;18.23;99544.16;5066272;28;20036;-82
2021/11/10 06:23:32;;;;;;;17.10;9.00;;;;;;;22.33;18.05;99546.66;5074105;28;20074;-82
2021/11/10 06:25:58;;;;;;;15.45;7.90;;;;;;;21.89;18.17;99541.84;5073651;28;20024;-82
2021/11/10 06:28:25;;;;;;;14.20;7.55;;;;;;;21.84;18.32;99553.38;5073213;28;20040;-82
2021/11/10 06:30:51;;;;;;;17.00;8.45;;;;;;;22.05;18.17;99550.00;5056078;28;20417;-82
2021/11/10 06:33:17;;;;;;;15.02;8.38;;;;;;;22.17;18.05;99555.28;5072261;28;20544;-82
2021/11/10 06:35:43;;;;;;;15.95;9.15;;;;;;;21.99;18.25;99551.53;5074156;28;20402;-82
2021/11/10 06:38:09;;;;;;;19.52;9.73;;;;;;;21.95;18.43;99550.69;5073339;28;20054;-82
2021/11/10 06:40:35;;;;;;;19.58;10.20;;;;;;;21.63;18.76;99555.94;5073310;28;20144;-82
2021/11/10 06:43:01;;;;;;;17.98;9.75;;;;;;;21.89;18.68;99555.03;5055106;28;20037;-82
2021/11/10 06:45:27;;;;;;;17.13;8.75;;;;;;;22.11;18.46;99556.03;5061053;28;20029;-82
2021/11/10 06:47:53;;;;;;;15.45;8.50;;;;;;;22.33;18.25;99555.06;5071742;28;20042;-82
2021/11/10 06:50:20;;;;;;;13.70;7.70;;;;;;;22.40;18.26;99550.31;5072030;28;20076;-82
2021/11/10 06:52:46;;;;;;;12.35;7.53;;;;;;;22.52;18.05;99550.00;5072520;28;20033;-82
2021/11/10 06:55:12;;;;;;;14.77;8.15;;;;;;;22.67;18.25;99557.34;5072387;28;20137;-82
2021/11/10 06:57:38;;;;;;;18.90;9.63;;;;;;;22.71;18.13;99553.78;5071858;28;20510;-82
2021/11/10 07:00:07;;;;;;;20.23;11.20;;;;;;;22.22;18.73;99563.34;5072247;28;20547;-82
2021/11/10 07:02:33;;;;;;;18.23;10.43;;;;;;;21.83;19.52;99554.53;5071944;28;20082;-82
2021/11/10 07:04:59;;;;;;;17.33;10.95;;;;;;;21.84;19.52;99556.16;5070147;28;20033;-82
2021/11/10 07:07:25;;;;;;;20.05;10.60;;;;;;;21.02;20.61;99555.50;5071281;28;20090;-82
2021/11/10 07:09:51;;;;;;;18.20;10.25;;;;;;;21.15;20.31;99552.13;5054718;28;20067;-82
2021/11/10 07:12:17;;;;;;;15.95;9.23;;;;;;;21.66;20.07;99546.75;5072846;28;20033;-83
2021/11/10 07:14:44;;;;;;;14.35;7.75;;;;;;;22.10;19.91;99540.47;5073076;28;20547;-83
2021/11/10 07:17:10;;;;;;;15.50;8.55;;;;;;;22.60;19.52;99534.06;5072377;28;20398;-83
2021/11/10 07:19:36;;;;;;;13.38;7.40;;;;;;;22.95;19.16;99530.72;5072341;28;20040;-83
2021/11/10 07:22:02;;;;;;;16.10;7.60;;;;;;;23.16;18.85;99533.63;5072884;28;20048;-83
2021/11/10 07:24:29;;;;;;;12.02;6.82;;;;;;;23.33;18.85;99542.13;5086598;28;20035;-83
2021/11/10 07:26:56;;;;;;;15.45;8.48;;;;;;;23.21;19.54;99531.28;5072776;28;20032;-83
2021/11/10 07:29:22;;;;;;;14.52;7.35;;;;;;;23.12;19.45;99530.03;5056091;28;20482;-83
2021/11/10 07:31:49;;;;;;;12.20;6.47;;;;;;;23.14;19.66;99530.44;5052889;28;20048;-83
2021/11/10 07:34:15;;;;;;;10.93;6.97;;;;;;;23.42;19.37;99524.97;5064283;28;20509;-83
2021/11/10 07:36:41;;;;;;;14.95;7.43;;;;;;;23.74;19.21;99520.25;5053635;28;20456;-83
2021/11/10 07:39:08;;;;;;;15.43;8.32;;;;;;;23.87;19.08;99517.91;5072176;28;20025;-84
2021/11/10 07:41:35;;;;;;;12.18;7.40;;;;;;;23.91;19.04;99524.31;5071028;28;20025;-83
2021/11/10 07:44:02;;;;;;;14.82;8.23;;;;;;;23.98;19.38;99522.31;5071738;28;20029;-83
2021/11/10 07:46:31;;;;;;;12.82;6.70;;;;;;;23.84;19.32;99521.47;5052267;28;20465;-83
2021/11/10 07:48:58;;;;;;;14.02;7.25;;;;;;;24.11;19.31;99525.56;5071444;28;20036;-83
2021/11/10 07:51:24;;;;;;;16.30;8.60;;;;;;;24.32;19.40;99524.78;5071331;28;20083;-83
2021/11/10 07:53:50;;;;;;;17.38;9.57;;;;;;;24.38;19.43;99521.16;5071427;28;20078;-83
2021/11/10 07:56:16;;;;;;;18.67;10.52;;;;;;;24.43;19.58;99520.78;5072390;28;20359;-82
2021/11/10 07:58:43;;;;;;;21.88;10.77;;;;;;;24.64;19.11;99523.53;5071890;28;20093;-83
2021/11/10 08:01:10;;;;;;;22.85;11.60;;;;;;;24.53;18.91;99521.94;5076634;28;20119;-83
2021/11/10 08:03:36;;;;;;;18.33;11.25;;;;;;;24.51;19.35;99522.34;5072607;28;20032;-83
2021/11/10 08:06:03;;;;;;;20.40;11.07;;;;;;;24.58;19.00;99510.31;5067241;28;20036;-83
2021/11/10 08:08:30;;;;;;;17.70;9.85;;;;;;;24.70;19.12;99519.13;5070980;28;20037;-83
2021/11/10 08:10:59;;;;;;;17.98;10.43;;;;;;;24.60;19.57;99513.50;5071134;28;20029;-83
2021/11/10 08:13:26;;;;;;;17.83;10.25;;;;;;;24.55;19.68;99509.09;5053817;28;20075;-83
2021/11/10 08:15:56;;;;;;;19.52;10.55;;;;;;;24.43;20.09;99515.16;5053233;28;20451;-83
2021/11/10 08:18:22;;;;;;;17.75;9.93;;;;;;;24.63;19.83;99521.13;5071845;28;20158;-83
2021/11/10 08:20:49;;;;;;;14.90;8.88;;;;;;;24.91;19.73;99514.69;5071903;28;20486;-83
2021/11/10 08:23:19;;;;;;;16.52;9.88;;;;;;;24.78;20.63;99516.34;5057839;28;20029;-83
2021/11/10 08:25:49;;;;;;;18.27;11.20;;;;;;;24.57;20.83;99514.34;5075695;28;20111;-83
2021/11/10 08:28:17;;;;;;;17.85;11.20;;;;;;;24.86;20.22;99501.03;5057415;28;20166;-83
2021/11/10 08:30:43;;;;;;;16.58;10.32;;;;;;;25.00;20.19;99501.81;5072364;28;20127;-83
2021/11/10 08:33:09;;;;;;;16.40;9.32;;;;;;;25.18;20.35;99501.78;5075709;28;20406;-83
2021/11/10 08:35:35;;;;;;;12.80;8.60;;;;;;;24.98;20.55;99495.00;5076419;28;20469;-84
2021/11/10 08:38:02;;;;;;;13.15;7.65;;;;;;;24.81;21.00;99499.44;5075675;28;20025;-84
2021/11/10 08:40:28;;;;;;;12.75;7.85;;;;;;;25.08;20.93;99486.53;5071573;28;20690;-84
2021/11/10 08:42:54;;;;;;;14.40;8.27;;;;;;;25.42;20.57;99498.03;5075432;28;20029;-84
2021/11/10 08:45:26;;;;;;;12.57;7.07;;;;;;;25.10;20.74;99486.13;5074673;28;20435;-84
2021/11/10 08:47:53;;;;;;;10.63;6.18;;;;;;;24.91;20.57;99492.22;5074635;28;20108;-84
2021/11/10 08:50:21;;;;;;;7.60;5.40;;;;;;;24.30;21.65;99483.06;5074389;28;20565;-84
2021/11/10 08:52:49;;;;;;;8.05;4.78;;;;;;;24.90;21.24;99482.19;5074488;28;20478;-84
2021/11/10 08:55:16;;;;;;;11.68;5.13;;;;;;;25.17;20.53;99472.84;5055460;28;20030;-84
2021/11/10 08:57:44;;;;;;;8.38;4.60;;;;;;;25.19;20.83;99472.44;5074713;28;20090;-84
2021/11/10 09:00:14;;;;;;;5.65;3.90;;;;;;;25.52;20.75;99463.47;5055883;28;20030;-84
2021/11/10 09:02:40;;;;;;;8.55;5.50;;;;;;;25.42;20.28;99469.91;5056150;28;20090;-84
2021/11/10 09:05:08;;;;;;;6.57;4.25;;;;;;;25.31;21.06;99466.34;5074611;28;20032;-85
2021/11/10 09:07:35;;;;;;;7.43;4.85;;;;;;;25.73;20.65;99457.72;5074858;28;20387;-84
2021/11/10 09:10:04;;;;;;;7.10;4.30;;;;;;;25.76;20.81;99450.44;5074868;28;20039;-84
2021/11/10 09:12:31;;;;;;;5.72;4.25;;;;;;;25.95;21.16;99453.50;5056171;28;20032;-84
2021/11/10 09:14:57;;;;;;;7.32;3.63;;;;;;;25.74;20.22;99450.84;5074123;28;20016;-84
2021/11/10 09:17:24;;;;;;;5.40;3.45;;;;;;;25.70;20.38;99457.72;5074746;28;20065;-84
2021/11/10 09:19:50;;;;;;;5.13;3.03;;;;;;;25.51;21.01;99461.06;5073380;28;20029;-84
2021/11/10 09:22:16;;;;;;;5.85;3.88;;;;;;;25.68;20.68;99452.50;5070563;28;20048;-85
2021/11/10 09:24:42;;;;;;;6.03;3.92;;;;;;;26.03;20.14;99457.06;5065754;28;20032;-84
2021/11/10 09:27:09;;;;;;;5.22;3.25;;;;;;;26.10;20.40;99451.41;5073922;28;20034;-84
2021/11/10 09:29:37;;;;;;;7.90;2.97;;;;;;;26.22;20.74;99450.09;5073856;28;20032;-84
2021/11/10 09:32:03;;;;;;;3.97;2.97;;;;;;;26.52;20.09;99453.03;5074664;28;20491;-84
2021/11/10 09:34:29;;;;;;;5.70;3.10;;;;;;;26.97;19.85;99448.94;5074734;28;20465;-84
2021/11/10 09:36:56;;;;;;;4.10;2.33;;;;;;;26.96;19.38;99436.06;5074430;28;20401;-84
2021/11/10 09:39:24;;;;;;;4.70;2.65;;;;;;;27.33;19.34;99444.44;5064273;28;20500;-84
2021/11/10 09:41:53;;;;;;;4.95;2.20;;;;;;;27.60;18.92;99440.88;5074393;28;20074;-84
2021/11/10 09:44:20;;;;;;;3.60;2.25;;;;;;;27.64;19.08;99431.13;5054427;28;20122;-84
2021/11/10 09:46:47;;;;;;;4.03;2.00;;;;;;;27.90;18.57;99441.63;5058613;28;20033;-84
2021/11/10 09:49:14;;;;;;;4.93;2.47;;;;;;;27.21;19.39;99438.59;5064055;28;20513;-85
2021/11/10 09:51:42;;;;;;;3.83;2.08;;;;;;;27.10;19.16;99441.53;5054444;28;20021;-84
2021/11/10 09:54:13;;;;;;;3.28;1.80;;;;;;;26.08;20.31;99428.47;5056280;28;20036;-84
2021/11/10 09:56:42;;;;;;;3.78;2.08;;;;;;;27.11;19.88;99428.22;5073527;28;20036;-84
2021/11/10 09:59:08;;;;;;;2.80;2.10;;;;;;;27.49;18.69;99417.66;5072181;28;20107;-85
2021/11/10 10:01:36;;;;;;;2.65;1.85;;;;;;;27.60;18.20;99421.94;5073248;28;20060;-85
2021/11/10 10:04:04;;;;;;;2.55;1.75;;;;;;;27.82;18.18;99422.41;5074103;28;20036;-85
2021/11/10 10:06:30;;;;;;;3.20;1.80;;;;;;;26.92;19.55;99420.41;5073912;28;20032;-84
2021/11/10 10:08:58;;;;;;;1.67;1.10;;;;;;;27.73;19.04;99413.66;5073583;28;20025;-85
2021/11/10 10:11:25;;;;;;;2.22;1.52;;;;;;;27.75;18.26;99412.00;5073895;28;20083;-85
2021/11/10 10:13:51;;;;;;;1.30;1.20;;;;;;;27.91;17.63;99409.31;5073939;28;20028;-85
2021/11/10 10:16:23;;;;;;;1.92;1.50;;;;;;;27.27;18.72;99412.28;5073891;28;20478;-85
2021/11/10 10:18:50;;;;;;;2.83;1.75;;;;;;;27.20;18.74;99411.59;5074302;28;20120;-84
2021/11/10 10:21:18;;;;;;;1.80;1.50;;;;;;;27.31;19.15;99401.75;5069720;28;20063;-85
2021/11/10 10:23:48;;;;;;;2.03;1.25;;;;;;;28.06;18.33;99393.78;5059007;28;20033;-84
2021/11/10 10:26:21;;;;;;;1.45;1.05;;;;;;;28.47;17.40;99395.47;5075201;28;20028;-85
2021/11/10 10:28:53;;;;;;;2.20;1.27;;;;;;;28.30;18.05;99388.09;5073714;28;20033;-84
2021/11/10 10:31:24;;;;;;;1.13;0.95;;;;;;;28.02;18.61;99386.59;5073042;28;20440;-85
2021/11/10 10:33:57;;;;;;;1.05;0.70;;;;;;;28.41;18.64;99374.56;5073916;28;20029;-85
2021/11/10 10:36:26;;;;;;;2.95;0.90;;;;;;;28.94;17.19;99373.53;5072409;28;20025;-85
2021/11/10 10:38:54;;;;;;;1.33;0.85;;;;;;;29.08;17.99;99376.84;5072981;28;20055;-85
2021/11/10 10:41:29;;;;;;;1.30;0.70;;;;;;;28.72;17.81;99371.16;5062285;28;20029;-85
2021/11/10 10:44:02;;;;;;;1.38;0.63;;;;;;;28.92;18.27;99367.50;5067672;28;20386;-84
2021/11/10 10:46:30;;;;;;;0.80;0.73;;;;;;;28.89;17.55;99352.25;5055980;28;20039;-84
2021/11/10 10:49:18;;;;;;;0.85;0.77;;;;;;;28.53;18.27;99354.16;5063890;28;20040;-85
2021/11/10 10:51:49;;;;;;;1.27;0.98;;;;;;;28.56;18.01;99350.47;5070021;28;20469;-84
2021/11/10 10:54:15;;;;;;;2.15;1.02;;;;;;;27.78;18.08;99345.44;5072699;28;20029;-84
2021/11/10 10:56:49;;;;;;;1.48;0.70;;;;;;;28.00;18.26;99347.50;5073248;28;20105;-84
2021/11/10 10:59:16;;;;;;;1.05;0.77;;;;;;;28.34;18.72;99337.97;5061933;28;20021;-85
2021/11/10 11:01:52;;;;;;;1.10;0.80;;;;;;;28.23;18.91;99341.03;5067516;28;20520;-85
2021/11/10 11:04:21;;;;;;;1.08;0.70;;;;;;;28.84;18.34;99338.59;5072091;28;20230;-85
2021/11/10 11:07:01;;;;;;;1.00;0.90;;;;;;;28.73;16.51;99326.72;5073039;28;20509;-85
2021/11/10 11:09:45;;;;;;;1.50;0.85;;;;;;;28.56;17.86;99333.50;5053214;28;20032;-85
2021/11/10 11:12:22;;;;;;;0.85;0.82;;;;;;;28.29;17.32;99327.19;5054112;28;20112;-86
2021/11/10 11:14:56;;;;;;;1.52;0.82;;;;;;;28.70;17.93;99324.78;5072637;28;20024;-85
2021/11/10 11:17:28;;;;;;;3.55;1.45;;;;;;;28.47;17.40;99327.66;5069753;28;20389;-86
2021/11/10 11:19:57;;;;;;;2.05;0.80;;;;;;;28.92;17.19;99331.56;5072348;28;20371;-85
2021/11/10 11:22:24;;;;;;;1.38;0.60;;;;;;;29.36;17.11;99316.00;5067863;28;20057;-85
2021/11/10 11:24:50;;;;;;;1.08;0.88;;;;;;;29.33;16.29;99312.06;5068187;28;20041;-85
2021/11/10 11:27:26;;;;;;;1.90;0.88;;;;;;;29.47;17.07;99305.25;5072440;28;20029;-86
2021/11/10 11:30:05;;;;;;;1.75;1.13;;;;;;;28.42;17.89;99306.34;5059559;28;20028;-86